sensor_id;sensor_type;location;lat;lon;timestamp;pressure;altitude;pressure_sealevel;temperature;humidity
9525;BME280;15940;48.734;9.112;2023-09-19T00:00:00;96189.50;;;16.38;88.54
9525;BME280;15940;48.734;9.112;2023-09-19T00:02:27;96186.94;;;16.33;88.19
9525;BME280;15940;48.734;9.112;2023-09-19T00:04:55;96195.97;;;16.27;88.91
9525;BME280;15940;48.734;9.112;2023-09-19T00:07:21;96195.13;;;16.33;89.25
9525;BME280;15940;48.734;9.112;2023-09-19T00:09:49;96201.38;;;16.20;89.27
9525;BME280;15940;48.734;9.112;2023-09-19T00:12:15;96211.38;;;16.17;89.45
9525;BME280;15940;48.734;9.112;2023-09-19T00:14:43;96212.56;;;16.09;90.24
9525;BME280;15940;48.734;9.112;2023-09-19T00:17:12;96208.56;;;16.10;90.41
9525;BME280;15940;48.734;9.112;2023-09-19T00:19:39;96205.97;;;16.04;90.43
9525;BME280;15940;48.734;9.112;2023-09-19T00:22:08;96209.16;;;15.95;90.50
9525;BME280;15940;48.734;9.112;2023-09-19T00:24:35;96207.69;;;15.94;90.73
9525;BME280;15940;48.734;9.112;2023-09-19T00:27:03;96208.34;;;15.87;91.12
9525;BME280;15940;48.734;9.112;2023-09-19T00:29:31;96205.53;;;15.79;91.44
9525;BME280;15940;48.734;9.112;2023-09-19T00:31:58;96200.41;;;15.76;91.78
9525;BME280;15940;48.734;9.112;2023-09-19T00:34:27;96205.53;;;15.79;92.54
9525;BME280;15940;48.734;9.112;2023-09-19T00:36:55;96210.97;;;15.79;92.27
9525;BME280;15940;48.734;9.112;2023-09-19T00:39:22;96212.78;;;15.77;91.99
9525;BME280;15940;48.734;9.112;2023-09-19T00:41:51;96213.41;;;15.83;92.88
9525;BME280;15940;48.734;9.112;2023-09-19T00:44:18;96231.53;;;15.93;92.56
9525;BME280;15940;48.734;9.112;2023-09-19T00:46:46;96230.09;;;15.92;91.82
9525;BME280;15940;48.734;9.112;2023-09-19T00:49:15;96232.81;;;15.92;92.32
9525;BME280;15940;48.734;9.112;2023-09-19T00:51:44;96231.75;;;15.82;90.89
9525;BME280;15940;48.734;9.112;2023-09-19T00:54:13;96232.00;;;15.84;91.89
9525;BME280;15940;48.734;9.112;2023-09-19T00:56:45;96234.13;;;15.99;91.69
9525;BME280;15940;48.734;9.112;2023-09-19T00:59:14;96241.59;;;15.98;90.22
9525;BME280;15940;48.734;9.112;2023-09-19T01:01:42;96244.66;;;15.95;90.55
9525;BME280;15940;48.734;9.112;2023-09-19T01:04:11;96240.66;;;15.96;90.59
9525;BME280;15940;48.734;9.112;2023-09-19T01:06:39;96238.66;;;15.96;90.41
9525;BME280;15940;48.734;9.112;2023-09-19T01:09:08;96240.75;;;16.04;90.91
9525;BME280;15940;48.734;9.112;2023-09-19T01:11:40;96244.50;;;16.14;89.83
9525;BME280;15940;48.734;9.112;2023-09-19T01:14:20;96239.41;;;15.97;89.09
9525;BME280;15940;48.734;9.112;2023-09-19T01:17:00;96244.66;;;15.95;89.75
9525;BME280;15940;48.734;9.112;2023-09-19T01:20:11;96237.81;;;16.02;90.13
9525;BME280;15940;48.734;9.112;2023-09-19T01:23:05;96241.16;;;16.08;89.78
9525;BME280;15940;48.734;9.112;2023-09-19T01:26:10;96233.28;;;16.04;88.74
9525;BME280;15940;48.734;9.112;2023-09-19T01:28:51;96244.53;;;16.00;88.69
9525;BME280;15940;48.734;9.112;2023-09-19T01:31:23;96252.41;;;16.04;88.81
9525;BME280;15940;48.734;9.112;2023-09-19T01:33:59;96244.41;;;16.06;88.91
9525;BME280;15940;48.734;9.112;2023-09-19T01:36:29;96254.16;;;16.15;88.59
9525;BME280;15940;48.734;9.112;2023-09-19T01:38:57;96249.44;;;16.15;88.22
9525;BME280;15940;48.734;9.112;2023-09-19T01:41:37;96251.31;;;16.20;87.88
9525;BME280;15940;48.734;9.112;2023-09-19T01:44:09;96261.28;;;16.18;88.06
9525;BME280;15940;48.734;9.112;2023-09-19T01:46:42;96264.31;;;16.27;86.73
9525;BME280;15940;48.734;9.112;2023-09-19T01:49:22;96260.44;;;16.23;86.10
9525;BME280;15940;48.734;9.112;2023-09-19T01:52:04;96262.97;;;16.21;87.77
9525;BME280;15940;48.734;9.112;2023-09-19T01:54:50;96263.91;;;16.23;86.56
9525;BME280;15940;48.734;9.112;2023-09-19T01:57:27;96266.66;;;16.23;86.47
9525;BME280;15940;48.734;9.112;2023-09-19T02:00:02;96269.28;;;16.16;86.71
9525;BME280;15940;48.734;9.112;2023-09-19T02:02:35;96273.50;;;16.17;87.27
9525;BME280;15940;48.734;9.112;2023-09-19T02:05:03;96279.69;;;16.17;86.78
9525;BME280;15940;48.734;9.112;2023-09-19T02:07:32;96283.16;;;16.18;86.16
9525;BME280;15940;48.734;9.112;2023-09-19T02:09:59;96270.56;;;16.15;87.24
9525;BME280;15940;48.734;9.112;2023-09-19T02:12:26;96282.84;;;16.21;86.73
9525;BME280;15940;48.734;9.112;2023-09-19T02:14:54;96283.69;;;16.16;87.12
9525;BME280;15940;48.734;9.112;2023-09-19T02:17:22;96287.69;;;16.15;87.31
9525;BME280;15940;48.734;9.112;2023-09-19T02:19:53;96286.53;;;16.11;86.37
9525;BME280;15940;48.734;9.112;2023-09-19T02:22:20;96284.22;;;16.15;86.65
9525;BME280;15940;48.734;9.112;2023-09-19T02:24:48;96286.88;;;16.07;87.12
9525;BME280;15940;48.734;9.112;2023-09-19T02:27:16;96293.59;;;16.06;87.04
9525;BME280;15940;48.734;9.112;2023-09-19T02:29:43;96292.25;;;15.99;87.11
9525;BME280;15940;48.734;9.112;2023-09-19T02:32:10;96296.03;;;15.96;87.54
9525;BME280;15940;48.734;9.112;2023-09-19T02:34:37;96298.97;;;15.98;87.35
9525;BME280;15940;48.734;9.112;2023-09-19T02:37:06;96290.47;;;16.02;87.59
9525;BME280;15940;48.734;9.112;2023-09-19T02:39:34;96288.78;;;15.99;87.33
9525;BME280;15940;48.734;9.112;2023-09-19T02:42:01;96291.94;;;15.90;87.13
9525;BME280;15940;48.734;9.112;2023-09-19T02:44:29;96288.19;;;15.93;87.66
9525;BME280;15940;48.734;9.112;2023-09-19T02:46:57;96286.06;;;15.86;88.20
9525;BME280;15940;48.734;9.112;2023-09-19T02:49:24;96295.44;;;15.77;88.44
9525;BME280;15940;48.734;9.112;2023-09-19T02:51:51;96304.78;;;15.82;88.95
9525;BME280;15940;48.734;9.112;2023-09-19T02:54:19;96300.38;;;15.79;88.02
9525;BME280;15940;48.734;9.112;2023-09-19T02:56:47;96312.03;;;15.79;88.59
9525;BME280;15940;48.734;9.112;2023-09-19T02:59:15;96301.94;;;15.87;88.96
9525;BME280;15940;48.734;9.112;2023-09-19T03:01:43;96301.59;;;15.91;88.61
9525;BME280;15940;48.734;9.112;2023-09-19T03:04:12;96317.16;;;15.96;88.25
9525;BME280;15940;48.734;9.112;2023-09-19T03:06:39;96312.53;;;16.04;88.25
9525;BME280;15940;48.734;9.112;2023-09-19T03:09:06;96314.72;;;16.06;87.53
9525;BME280;15940;48.734;9.112;2023-09-19T03:11:40;96318.41;;;15.95;87.70
9525;BME280;15940;48.734;9.112;2023-09-19T03:14:07;96323.78;;;15.87;87.97
9525;BME280;15940;48.734;9.112;2023-09-19T03:16:35;96320.72;;;15.91;87.67
9525;BME280;15940;48.734;9.112;2023-09-19T03:19:03;96319.78;;;15.88;88.59
9525;BME280;15940;48.734;9.112;2023-09-19T03:21:31;96313.16;;;15.97;89.08
9525;BME280;15940;48.734;9.112;2023-09-19T03:23:58;96315.56;;;16.00;88.88
9525;BME280;15940;48.734;9.112;2023-09-19T03:26:25;96317.97;;;16.04;88.73
9525;BME280;15940;48.734;9.112;2023-09-19T03:28:54;96311.59;;;16.02;88.01
9525;BME280;15940;48.734;9.112;2023-09-19T03:31:20;96310.63;;;15.99;88.34
9525;BME280;15940;48.734;9.112;2023-09-19T03:33:47;96313.66;;;16.09;88.37
9525;BME280;15940;48.734;9.112;2023-09-19T03:36:14;96313.84;;;16.11;87.48
9525;BME280;15940;48.734;9.112;2023-09-19T03:38:41;96313.16;;;15.97;87.49
9525;BME280;15940;48.734;9.112;2023-09-19T03:41:08;96309.38;;;16.00;87.71
9525;BME280;15940;48.734;9.112;2023-09-19T03:43:39;96306.63;;;16.00;88.52
9525;BME280;15940;48.734;9.112;2023-09-19T03:46:08;96310.97;;;15.95;88.25
9525;BME280;15940;48.734;9.112;2023-09-19T03:48:35;96303.38;;;16.02;88.02
9525;BME280;15940;48.734;9.112;2023-09-19T03:51:01;96310.22;;;15.95;87.99
9525;BME280;15940;48.734;9.112;2023-09-19T03:53:28;96307.16;;;15.98;88.50
9525;BME280;15940;48.734;9.112;2023-09-19T03:55:55;96310.09;;;16.00;88.05
9525;BME280;15940;48.734;9.112;2023-09-19T03:58:23;96314.63;;;15.98;88.04
9525;BME280;15940;48.734;9.112;2023-09-19T04:00:50;96308.84;;;16.02;87.46
9525;BME280;15940;48.734;9.112;2023-09-19T04:03:18;96305.25;;;16.07;87.79
9525;BME280;15940;48.734;9.112;2023-09-19T04:05:46;96306.97;;;15.96;87.89
9525;BME280;15940;48.734;9.112;2023-09-19T04:08:13;96311.59;;;15.88;88.78
9525;BME280;15940;48.734;9.112;2023-09-19T04:10:42;96316.44;;;15.82;88.88
9525;BME280;15940;48.734;9.112;2023-09-19T04:13:10;96313.63;;;15.75;89.47
9525;BME280;15940;48.734;9.112;2023-09-19T04:15:37;96314.56;;;15.77;89.86
9525;BME280;15940;48.734;9.112;2023-09-19T04:18:06;96307.63;;;15.76;90.26
9525;BME280;15940;48.734;9.112;2023-09-19T04:20:34;96317.72;;;15.68;90.17
9525;BME280;15940;48.734;9.112;2023-09-19T04:23:01;96322.75;;;15.64;91.16
9525;BME280;15940;48.734;9.112;2023-09-19T04:25:30;96324.44;;;15.67;90.54
9525;BME280;15940;48.734;9.112;2023-09-19T04:27:57;96324.44;;;15.67;91.18
9525;BME280;15940;48.734;9.112;2023-09-19T04:30:24;96324.09;;;15.70;91.44
9525;BME280;15940;48.734;9.112;2023-09-19T04:32:51;96324.63;;;15.69;91.30
9525;BME280;15940;48.734;9.112;2023-09-19T04:35:19;96324.84;;;15.71;91.18
9525;BME280;15940;48.734;9.112;2023-09-19T04:37:48;96326.22;;;15.78;91.23
9525;BME280;15940;48.734;9.112;2023-09-19T04:40:15;96332.41;;;15.78;90.95
9525;BME280;15940;48.734;9.112;2023-09-19T04:42:43;96327.34;;;15.82;90.45
9525;BME280;15940;48.734;9.112;2023-09-19T04:45:10;96336.06;;;15.94;90.71
9525;BME280;15940;48.734;9.112;2023-09-19T04:47:38;96339.75;;;15.96;89.68
9525;BME280;15940;48.734;9.112;2023-09-19T04:50:09;96335.41;;;16.01;89.75
9525;BME280;15940;48.734;9.112;2023-09-19T04:52:40;96336.38;;;16.04;90.16
9525;BME280;15940;48.734;9.112;2023-09-19T04:55:11;96338.78;;;16.07;90.34
9525;BME280;15940;48.734;9.112;2023-09-19T04:57:43;96356.63;;;16.08;90.42
9525;BME280;15940;48.734;9.112;2023-09-19T05:00:13;96359.69;;;16.05;90.92
9525;BME280;15940;48.734;9.112;2023-09-19T05:02:40;96361.91;;;16.06;91.21
9525;BME280;15940;48.734;9.112;2023-09-19T05:05:08;96367.47;;;16.00;91.73
9525;BME280;15940;48.734;9.112;2023-09-19T05:07:36;96365.78;;;15.97;92.91
9525;BME280;15940;48.734;9.112;2023-09-19T05:10:04;96366.75;;;15.87;93.80
9525;BME280;15940;48.734;9.112;2023-09-19T05:12:34;96379.03;;;15.80;94.42
9525;BME280;15940;48.734;9.112;2023-09-19T05:15:02;96383.78;;;15.66;96.10
9525;BME280;15940;48.734;9.112;2023-09-19T05:17:29;96375.59;;;15.66;96.14
9525;BME280;15940;48.734;9.112;2023-09-19T05:19:57;96367.97;;;15.59;96.12
9525;BME280;15940;48.734;9.112;2023-09-19T05:22:27;96366.50;;;15.45;96.97
9525;BME280;15940;48.734;9.112;2023-09-19T05:24:54;96378.59;;;15.50;98.20
9525;BME280;15940;48.734;9.112;2023-09-19T05:27:21;96380.91;;;15.46;97.56
9525;BME280;15940;48.734;9.112;2023-09-19T05:29:49;96379.09;;;15.48;98.87
9525;BME280;15940;48.734;9.112;2023-09-19T05:32:18;96383.31;;;15.49;99.13
9525;BME280;15940;48.734;9.112;2023-09-19T05:34:46;96377.63;;;15.47;98.01
9525;BME280;15940;48.734;9.112;2023-09-19T05:37:13;96375.84;;;15.50;98.92
9525;BME280;15940;48.734;9.112;2023-09-19T05:39:42;96381.19;;;15.42;98.21
9525;BME280;15940;48.734;9.112;2023-09-19T05:42:09;96386.78;;;15.50;98.69
9525;BME280;15940;48.734;9.112;2023-09-19T05:44:36;96396.00;;;15.47;98.88
9525;BME280;15940;48.734;9.112;2023-09-19T05:47:05;96391.09;;;15.58;99.88
9525;BME280;15940;48.734;9.112;2023-09-19T05:49:34;96409.16;;;15.61;99.37
9525;BME280;15940;48.734;9.112;2023-09-19T05:52:05;96413.66;;;15.59;98.63
9525;BME280;15940;48.734;9.112;2023-09-19T05:54:32;96428.97;;;15.35;98.41
9525;BME280;15940;48.734;9.112;2023-09-19T05:56:59;96449.69;;;15.25;100.00
9525;BME280;15940;48.734;9.112;2023-09-19T05:59:27;96440.06;;;15.05;99.57
9525;BME280;15940;48.734;9.112;2023-09-19T06:01:54;96440.91;;;15.00;100.00
9525;BME280;15940;48.734;9.112;2023-09-19T06:04:22;96446.16;;;14.98;100.00
9525;BME280;15940;48.734;9.112;2023-09-19T06:06:49;96448.00;;;14.90;99.89
9525;BME280;15940;48.734;9.112;2023-09-19T06:09:16;96453.25;;;14.69;100.00
9525;BME280;15940;48.734;9.112;2023-09-19T06:11:44;96449.69;;;14.74;100.00
9525;BME280;15940;48.734;9.112;2023-09-19T06:14:12;96450.38;;;14.62;100.00
9525;BME280;15940;48.734;9.112;2023-09-19T06:16:39;96455.09;;;14.61;100.00
9525;BME280;15940;48.734;9.112;2023-09-19T06:19:07;96459.94;;;14.68;100.00
9525;BME280;15940;48.734;9.112;2023-09-19T06:21:36;96455.97;;;14.50;100.00
9525;BME280;15940;48.734;9.112;2023-09-19T06:24:03;96459.25;;;14.43;100.00
9525;BME280;15940;48.734;9.112;2023-09-19T06:26:30;96457.78;;;14.42;100.00
9525;BME280;15940;48.734;9.112;2023-09-19T06:28:57;96457.50;;;14.65;100.00
9525;BME280;15940;48.734;9.112;2023-09-19T06:31:25;96454.78;;;14.83;100.00
9525;BME280;15940;48.734;9.112;2023-09-19T06:33:52;96463.84;;;14.92;100.00
9525;BME280;15940;48.734;9.112;2023-09-19T06:36:19;96460.28;;;14.97;100.00
9525;BME280;15940;48.734;9.112;2023-09-19T06:38:48;96462.63;;;15.06;100.00
9525;BME280;15940;48.734;9.112;2023-09-19T06:41:17;96467.50;;;15.13;100.00
9525;BME280;15940;48.734;9.112;2023-09-19T06:43:44;96467.06;;;15.09;100.00
9525;BME280;15940;48.734;9.112;2023-09-19T06:46:11;96467.97;;;14.98;100.00
9525;BME280;15940;48.734;9.112;2023-09-19T06:48:38;96468.09;;;15.06;100.00
9525;BME280;15940;48.734;9.112;2023-09-19T06:51:05;96469.19;;;15.16;100.00
9525;BME280;15940;48.734;9.112;2023-09-19T06:53:32;96468.19;;;15.32;100.00
9525;BME280;15940;48.734;9.112;2023-09-19T06:56:02;96472.44;;;15.47;99.99
9525;BME280;15940;48.734;9.112;2023-09-19T06:58:29;96469.72;;;15.60;99.87
9525;BME280;15940;48.734;9.112;2023-09-19T07:00:57;96472.69;;;15.62;97.43
9525;BME280;15940;48.734;9.112;2023-09-19T07:03:24;96479.47;;;15.74;96.75
9525;BME280;15940;48.734;9.112;2023-09-19T07:05:52;96489.97;;;15.83;95.95
9525;BME280;15940;48.734;9.112;2023-09-19T07:08:21;96494.25;;;15.79;94.42
9525;BME280;15940;48.734;9.112;2023-09-19T07:10:48;96498.06;;;15.89;97.35
9525;BME280;15940;48.734;9.112;2023-09-19T07:13:21;96498.09;;;16.02;96.22
9525;BME280;15940;48.734;9.112;2023-09-19T07:15:47;96511.03;;;16.02;95.01
9525;BME280;15940;48.734;9.112;2023-09-19T07:18:16;96510.38;;;16.09;94.56
9525;BME280;15940;48.734;9.112;2023-09-19T07:20:43;96509.03;;;16.15;94.78
9525;BME280;15940;48.734;9.112;2023-09-19T07:23:14;96516.72;;;16.30;94.71
9525;BME280;15940;48.734;9.112;2023-09-19T07:25:42;96514.78;;;16.38;94.20
9525;BME280;15940;48.734;9.112;2023-09-19T07:28:09;96510.59;;;16.50;91.97
9525;BME280;15940;48.734;9.112;2023-09-19T07:30:38;96508.28;;;16.54;93.01
9525;BME280;15940;48.734;9.112;2023-09-19T07:33:07;96512.28;;;16.80;92.16
9525;BME280;15940;48.734;9.112;2023-09-19T07:35:36;96512.38;;;16.88;92.03
9525;BME280;15940;48.734;9.112;2023-09-19T07:38:05;96514.84;;;16.99;89.92
9525;BME280;15940;48.734;9.112;2023-09-19T07:40:32;96521.34;;;17.09;90.53
9525;BME280;15940;48.734;9.112;2023-09-19T07:42:59;96523.44;;;17.16;86.97
9525;BME280;15940;48.734;9.112;2023-09-19T07:45:27;96531.13;;;17.18;87.26
9525;BME280;15940;48.734;9.112;2023-09-19T07:47:57;96525.31;;;17.21;87.87
9525;BME280;15940;48.734;9.112;2023-09-19T07:50:23;96523.97;;;17.14;88.04
9525;BME280;15940;48.734;9.112;2023-09-19T07:52:52;96526.47;;;17.26;87.93
9525;BME280;15940;48.734;9.112;2023-09-19T07:55:22;96523.50;;;17.24;87.73
9525;BME280;15940;48.734;9.112;2023-09-19T07:57:52;96532.97;;;17.36;85.95
9525;BME280;15940;48.734;9.112;2023-09-19T08:00:19;96535.25;;;17.45;86.80
9525;BME280;15940;48.734;9.112;2023-09-19T08:02:45;96529.69;;;17.37;86.12
9525;BME280;15940;48.734;9.112;2023-09-19T08:05:14;96532.34;;;17.51;84.93
9525;BME280;15940;48.734;9.112;2023-09-19T08:07:44;96534.38;;;17.71;86.12
9525;BME280;15940;48.734;9.112;2023-09-19T08:10:14;96535.72;;;17.78;84.99
9525;BME280;15940;48.734;9.112;2023-09-19T08:12:42;96540.88;;;17.81;83.96
9525;BME280;15940;48.734;9.112;2023-09-19T08:15:13;96546.56;;;17.83;84.13
9525;BME280;15940;48.734;9.112;2023-09-19T08:17:40;96549.75;;;17.95;83.64
9525;BME280;15940;48.734;9.112;2023-09-19T08:20:08;96554.56;;;18.02;83.17
9525;BME280;15940;48.734;9.112;2023-09-19T08:22:43;96550.16;;;17.99;82.13
9525;BME280;15940;48.734;9.112;2023-09-19T08:25:14;96551.38;;;18.19;81.71
9525;BME280;15940;48.734;9.112;2023-09-19T08:27:43;96556.09;;;18.11;80.67
9525;BME280;15940;48.734;9.112;2023-09-19T08:30:14;96561.81;;;17.92;79.13
9525;BME280;15940;48.734;9.112;2023-09-19T08:32:41;96561.38;;;17.67;81.36
9525;BME280;15940;48.734;9.112;2023-09-19T08:35:09;96558.09;;;17.68;82.79
9525;BME280;15940;48.734;9.112;2023-09-19T08:37:37;96563.28;;;17.72;83.34
9525;BME280;15940;48.734;9.112;2023-09-19T08:40:06;96566.38;;;17.55;82.03
9525;BME280;15940;48.734;9.112;2023-09-19T08:42:48;96565.59;;;17.34;82.04
9525;BME280;15940;48.734;9.112;2023-09-19T08:45:16;96571.31;;;17.23;81.14
9525;BME280;15940;48.734;9.112;2023-09-19T08:47:50;96574.28;;;17.25;81.76
9525;BME280;15940;48.734;9.112;2023-09-19T08:50:27;96570.47;;;17.28;83.48
9525;BME280;15940;48.734;9.112;2023-09-19T08:52:56;96568.72;;;17.17;80.87
9525;BME280;15940;48.734;9.112;2023-09-19T08:55:28;96576.38;;;17.19;83.16
9525;BME280;15940;48.734;9.112;2023-09-19T08:58:00;96571.31;;;17.23;80.73
9525;BME280;15940;48.734;9.112;2023-09-19T09:00:28;96569.81;;;17.35;81.28
9525;BME280;15940;48.734;9.112;2023-09-19T09:02:56;96573.34;;;17.77;82.38
9525;BME280;15940;48.734;9.112;2023-09-19T09:05:24;96569.19;;;17.63;77.80
9525;BME280;15940;48.734;9.112;2023-09-19T09:07:52;96572.78;;;17.58;78.51
9525;BME280;15940;48.734;9.112;2023-09-19T09:10:20;96576.97;;;17.72;80.85
9525;BME280;15940;48.734;9.112;2023-09-19T09:12:51;96575.16;;;17.95;80.22
9525;BME280;15940;48.734;9.112;2023-09-19T09:15:19;96568.28;;;18.02;77.39
9525;BME280;15940;48.734;9.112;2023-09-19T09:17:47;96579.47;;;18.33;76.48
9525;BME280;15940;48.734;9.112;2023-09-19T09:20:16;96578.50;;;18.51;74.97
9525;BME280;15940;48.734;9.112;2023-09-19T09:22:51;96577.75;;;18.50;73.33
9525;BME280;15940;48.734;9.112;2023-09-19T09:25:19;96584.53;;;18.49;70.11
9525;BME280;15940;48.734;9.112;2023-09-19T09:27:59;96584.03;;;18.30;72.54
9525;BME280;15940;48.734;9.112;2023-09-19T09:30:33;96581.22;;;18.22;73.51
9525;BME280;15940;48.734;9.112;2023-09-19T09:33:11;96580.56;;;18.09;71.73
9525;BME280;15940;48.734;9.112;2023-09-19T09:35:48;96577.16;;;17.95;70.67
9525;BME280;15940;48.734;9.112;2023-09-19T09:38:18;96576.34;;;17.66;70.16
9525;BME280;15940;48.734;9.112;2023-09-19T09:40:50;96580.19;;;17.50;70.00
9525;BME280;15940;48.734;9.112;2023-09-19T09:43:34;96582.84;;;17.97;71.50
9525;BME280;15940;48.734;9.112;2023-09-19T09:46:11;96567.59;;;18.09;73.98
9525;BME280;15940;48.734;9.112;2023-09-19T09:48:57;96577.56;;;18.20;75.12
9525;BME280;15940;48.734;9.112;2023-09-19T09:51:46;96577.25;;;18.03;73.68
9525;BME280;15940;48.734;9.112;2023-09-19T09:54:24;96576.03;;;17.90;73.69
9525;BME280;15940;48.734;9.112;2023-09-19T09:56:55;96574.66;;;17.63;67.63
9525;BME280;15940;48.734;9.112;2023-09-19T09:59:44;96574.69;;;17.50;69.63
9525;BME280;15940;48.734;9.112;2023-09-19T10:02:17;96583.25;;;18.01;74.76
9525;BME280;15940;48.734;9.112;2023-09-19T10:04:51;96585.38;;;18.16;67.71
9525;BME280;15940;48.734;9.112;2023-09-19T10:07:28;96585.94;;;18.43;68.14
9525;BME280;15940;48.734;9.112;2023-09-19T10:10:04;96581.34;;;19.02;66.17
9525;BME280;15940;48.734;9.112;2023-09-19T10:12:43;96579.53;;;19.56;64.55
9525;BME280;15940;48.734;9.112;2023-09-19T10:15:12;96585.09;;;20.02;64.43
9525;BME280;15940;48.734;9.112;2023-09-19T10:17:43;96568.56;;;20.40;63.68
9525;BME280;15940;48.734;9.112;2023-09-19T10:20:13;96573.84;;;20.76;59.34
9525;BME280;15940;48.734;9.112;2023-09-19T10:23:06;96569.06;;;21.32;60.14
9525;BME280;15940;48.734;9.112;2023-09-19T10:25:38;96563.28;;;21.46;60.47
9525;BME280;15940;48.734;9.112;2023-09-19T10:28:07;96554.53;;;21.64;53.82
9525;BME280;15940;48.734;9.112;2023-09-19T10:30:41;96558.91;;;22.00;57.45
9525;BME280;15940;48.734;9.112;2023-09-19T10:33:10;96557.50;;;22.34;56.16
9525;BME280;15940;48.734;9.112;2023-09-19T10:35:39;96551.69;;;22.30;52.89
9525;BME280;15940;48.734;9.112;2023-09-19T10:38:08;96544.44;;;22.34;54.43
9525;BME280;15940;48.734;9.112;2023-09-19T10:40:37;96555.81;;;22.38;53.54
9525;BME280;15940;48.734;9.112;2023-09-19T10:43:12;96562.66;;;22.37;54.17
9525;BME280;15940;48.734;9.112;2023-09-19T10:45:43;96555.66;;;22.36;52.43
9525;BME280;15940;48.734;9.112;2023-09-19T10:48:11;96567.13;;;22.50;55.01
9525;BME280;15940;48.734;9.112;2023-09-19T10:50:44;96560.72;;;22.65;54.48
9525;BME280;15940;48.734;9.112;2023-09-19T10:53:13;96568.75;;;22.53;53.01
9525;BME280;15940;48.734;9.112;2023-09-19T10:55:48;96566.03;;;22.45;53.13
9525;BME280;15940;48.734;9.112;2023-09-19T10:58:26;96568.22;;;22.05;51.57
9525;BME280;15940;48.734;9.112;2023-09-19T11:00:57;96572.94;;;21.87;55.06
9525;BME280;15940;48.734;9.112;2023-09-19T11:03:31;96565.28;;;21.53;52.38
9525;BME280;15940;48.734;9.112;2023-09-19T11:06:17;96562.09;;;21.64;53.40
9525;BME280;15940;48.734;9.112;2023-09-19T11:08:54;96566.69;;;21.29;55.07
9525;BME280;15940;48.734;9.112;2023-09-19T11:11:45;96561.59;;;21.50;53.52
9525;BME280;15940;48.734;9.112;2023-09-19T11:14:39;96554.88;;;21.44;53.50
9525;BME280;15940;48.734;9.112;2023-09-19T11:17:42;96557.59;;;21.51;53.59
9525;BME280;15940;48.734;9.112;2023-09-19T11:20:25;96554.19;;;21.28;54.94
9525;BME280;15940;48.734;9.112;2023-09-19T11:23:22;96550.81;;;21.45;56.30
9525;BME280;15940;48.734;9.112;2023-09-19T11:25:49;96556.25;;;21.12;52.71
9525;BME280;15940;48.734;9.112;2023-09-19T11:28:32;96554.44;;;20.51;53.00
9525;BME280;15940;48.734;9.112;2023-09-19T11:31:41;96557.94;;;20.14;56.67
9525;BME280;15940;48.734;9.112;2023-09-19T11:38:04;96557.16;;;19.52;56.16
9525;BME280;15940;48.734;9.112;2023-09-19T11:40:45;96550.00;;;19.49;58.02
9525;BME280;15940;48.734;9.112;2023-09-19T11:43:32;96557.56;;;19.79;57.19
9525;BME280;15940;48.734;9.112;2023-09-19T11:46:08;96550.81;;;20.11;56.04
9525;BME280;15940;48.734;9.112;2023-09-19T11:48:41;96540.88;;;20.31;57.56
9525;BME280;15940;48.734;9.112;2023-09-19T11:51:16;96551.28;;;20.70;56.46
9525;BME280;15940;48.734;9.112;2023-09-19T11:53:49;96552.09;;;20.48;54.38
9525;BME280;15940;48.734;9.112;2023-09-19T11:56:19;96546.56;;;20.17;57.33
9525;BME280;15940;48.734;9.112;2023-09-19T11:58:49;96544.38;;;20.08;57.48
9525;BME280;15940;48.734;9.112;2023-09-19T12:01:23;96547.69;;;19.99;57.59
9525;BME280;15940;48.734;9.112;2023-09-19T12:03:54;96553.91;;;19.77;55.18
9525;BME280;15940;48.734;9.112;2023-09-19T12:06:24;96545.84;;;19.79;58.70
9525;BME280;15940;48.734;9.112;2023-09-19T12:08:52;96539.59;;;19.71;59.16
9525;BME280;15940;48.734;9.112;2023-09-19T12:11:22;96538.16;;;19.62;57.94
9525;BME280;15940;48.734;9.112;2023-09-19T12:13:50;96539.81;;;20.18;59.05
9525;BME280;15940;48.734;9.112;2023-09-19T12:16:20;96527.69;;;20.29;54.11
9525;BME280;15940;48.734;9.112;2023-09-19T12:18:49;96526.59;;;20.17;57.67
9525;BME280;15940;48.734;9.112;2023-09-19T12:21:30;96535.00;;;20.34;57.35
9525;BME280;15940;48.734;9.112;2023-09-19T12:24:05;96521.34;;;20.74;56.31
9525;BME280;15940;48.734;9.112;2023-09-19T12:26:42;96521.78;;;21.44;54.89
9525;BME280;15940;48.734;9.112;2023-09-19T12:29:15;96521.97;;;21.71;54.94
9525;BME280;15940;48.734;9.112;2023-09-19T12:31:51;96519.00;;;21.51;54.94
9525;BME280;15940;48.734;9.112;2023-09-19T12:34:22;96506.78;;;21.62;51.95
9525;BME280;15940;48.734;9.112;2023-09-19T12:37:09;96511.44;;;22.02;52.31
9525;BME280;15940;48.734;9.112;2023-09-19T12:39:43;96511.72;;;22.13;53.38
9525;BME280;15940;48.734;9.112;2023-09-19T12:42:15;96497.97;;;22.06;51.54
9525;BME280;15940;48.734;9.112;2023-09-19T12:44:44;96488.97;;;22.05;50.80
9525;BME280;15940;48.734;9.112;2023-09-19T12:47:14;96496.22;;;22.35;52.14
9525;BME280;15940;48.734;9.112;2023-09-19T12:50:09;96501.59;;;22.50;51.29
9525;BME280;15940;48.734;9.112;2023-09-19T12:52:53;96493.56;;;22.45;52.78
9525;BME280;15940;48.734;9.112;2023-09-19T12:55:23;96498.09;;;22.67;51.69
9525;BME280;15940;48.734;9.112;2023-09-19T12:58:12;96489.41;;;22.88;48.15
9525;BME280;15940;48.734;9.112;2023-09-19T13:00:42;96489.47;;;22.80;48.73
9525;BME280;15940;48.734;9.112;2023-09-19T13:03:16;96486.66;;;22.88;50.79
9525;BME280;15940;48.734;9.112;2023-09-19T13:05:49;96491.88;;;22.84;49.33
9525;BME280;15940;48.734;9.112;2023-09-19T13:08:29;96486.72;;;22.80;49.02
9525;BME280;15940;48.734;9.112;2023-09-19T13:11:10;96480.16;;;22.76;49.26
9525;BME280;15940;48.734;9.112;2023-09-19T13:13:43;96489.59;;;22.56;50.99
9525;BME280;15940;48.734;9.112;2023-09-19T13:16:11;96478.78;;;22.50;49.80
9525;BME280;15940;48.734;9.112;2023-09-19T13:18:46;96483.25;;;22.28;51.70
9525;BME280;15940;48.734;9.112;2023-09-19T13:21:13;96474.41;;;22.47;51.27
9525;BME280;15940;48.734;9.112;2023-09-19T13:23:54;96481.91;;;22.81;50.79
9525;BME280;15940;48.734;9.112;2023-09-19T13:26:25;96485.81;;;22.95;50.50
9525;BME280;15940;48.734;9.112;2023-09-19T13:28:53;96479.75;;;22.62;50.80
9525;BME280;15940;48.734;9.112;2023-09-19T13:31:20;96476.31;;;22.71;53.17
9525;BME280;15940;48.734;9.112;2023-09-19T13:33:49;96473.56;;;22.54;51.37